sensor_id;sensor_type;location;lat;lon;timestamp;pressure;altitude;pressure_sealevel;temperature;humidity
18504;BME280;9381;54.244;10.074;2023-03-04T00:00:16;101385.06;;;7.61;97.10
18504;BME280;9381;54.244;10.074;2023-03-04T00:05:16;101387.31;;;7.58;97.09
18504;BME280;9381;54.244;10.074;2023-03-04T00:10:17;101388.31;;;7.57;97.03
18504;BME280;9381;54.244;10.074;2023-03-04T00:15:17;101377.69;;;7.63;96.92
18504;BME280;9381;54.244;10.074;2023-03-04T00:20:17;101384.66;;;7.72;96.36
18504;BME280;9381;54.244;10.074;2023-03-04T00:25:18;101381.50;;;7.69;96.39
18504;BME280;9381;54.244;10.074;2023-03-04T00:30:18;101381.28;;;7.70;96.61
18504;BME280;9381;54.244;10.074;2023-03-04T00:35:18;101369.88;;;7.68;96.77
18504;BME280;9381;54.244;10.074;2023-03-04T00:40:19;101375.84;;;7.78;96.54
18504;BME280;9381;54.244;10.074;2023-03-04T00:45:19;101362.81;;;7.67;96.42
18504;BME280;9381;54.244;10.074;2023-03-04T00:50:19;101354.19;;;7.72;96.71
18504;BME280;9381;54.244;10.074;2023-03-04T00:55:20;101361.41;;;7.71;96.56
18504;BME280;9381;54.244;10.074;2023-03-04T01:00:20;101355.47;;;7.76;96.18
18504;BME280;9381;54.244;10.074;2023-03-04T01:05:21;101349.34;;;7.67;97.06
18504;BME280;9381;54.244;10.074;2023-03-04T01:10:21;101354.38;;;7.70;97.57
18504;BME280;9381;54.244;10.074;2023-03-04T01:15:21;101360.06;;;7.75;97.29
18504;BME280;9381;54.244;10.074;2023-03-04T01:20:22;101358.00;;;7.77;97.63
18504;BME280;9381;54.244;10.074;2023-03-04T01:25:22;101335.91;;;7.82;98.04
18504;BME280;9381;54.244;10.074;2023-03-04T01:30:22;101327.44;;;7.70;98.85
18504;BME280;9381;54.244;10.074;2023-03-04T01:35:23;101325.50;;;7.64;99.50
18504;BME280;9381;54.244;10.074;2023-03-04T01:40:23;101320.94;;;7.65;99.97
18504;BME280;9381;54.244;10.074;2023-03-04T01:45:23;101306.56;;;7.72;99.97
18504;BME280;9381;54.244;10.074;2023-03-04T01:50:32;101304.53;;;7.74;99.43
18504;BME280;9381;54.244;10.074;2023-03-04T01:55:33;101292.44;;;7.70;100.00
18504;BME280;9381;54.244;10.074;2023-03-04T02:00:33;101284.38;;;7.70;99.56
18504;BME280;9381;54.244;10.074;2023-03-04T02:05:36;101283.00;;;7.74;99.20
18504;BME280;9381;54.244;10.074;2023-03-04T02:10:38;101292.91;;;7.74;99.11
18504;BME280;9381;54.244;10.074;2023-03-04T02:15:39;101274.63;;;7.84;98.23
18504;BME280;9381;54.244;10.074;2023-03-04T02:26:22;101266.44;;;7.77;95.02
18504;BME280;9381;54.244;10.074;2023-03-04T02:31:30;101268.59;;;7.82;95.97
18504;BME280;9381;54.244;10.074;2023-03-04T02:36:31;101260.59;;;7.88;96.38
18504;BME280;9381;54.244;10.074;2023-03-04T02:41:33;101250.84;;;7.87;96.01
18504;BME280;9381;54.244;10.074;2023-03-04T02:46:34;101242.22;;;7.77;96.95
18504;BME280;9381;54.244;10.074;2023-03-04T02:51:34;101253.75;;;7.86;96.44
18504;BME280;9381;54.244;10.074;2023-03-04T02:56:34;101241.75;;;7.59;95.10
18504;BME280;9381;54.244;10.074;2023-03-04T03:01:34;101252.34;;;7.75;92.69
18504;BME280;9381;54.244;10.074;2023-03-04T03:06:35;101239.34;;;7.64;90.75
18504;BME280;9381;54.244;10.074;2023-03-04T03:11:35;101230.97;;;7.59;89.26
18504;BME280;9381;54.244;10.074;2023-03-04T03:16:36;101250.03;;;7.58;89.07
18504;BME280;9381;54.244;10.074;2023-03-04T03:21:36;101241.75;;;7.59;89.78
18504;BME280;9381;54.244;10.074;2023-03-04T03:26:36;101236.09;;;7.69;89.20
18504;BME280;9381;54.244;10.074;2023-03-04T03:31:38;101235.25;;;7.68;90.18
18504;BME280;9381;54.244;10.074;2023-03-04T03:36:39;101236.84;;;7.63;91.52
18504;BME280;9381;54.244;10.074;2023-03-04T03:41:39;101236.56;;;7.72;92.31
18504;BME280;9381;54.244;10.074;2023-03-04T03:46:40;101231.91;;;7.66;91.38
18504;BME280;9381;54.244;10.074;2023-03-04T03:51:40;101248.44;;;7.63;90.08
18504;BME280;9381;54.244;10.074;2023-03-04T03:56:41;101227.34;;;7.52;87.80
18504;BME280;9381;54.244;10.074;2023-03-04T04:01:41;101229.31;;;7.58;87.07
18504;BME280;9381;54.244;10.074;2023-03-04T04:06:41;101234.59;;;7.52;86.21
18504;BME280;9381;54.244;10.074;2023-03-04T04:11:41;101221.72;;;7.47;86.26
18504;BME280;9381;54.244;10.074;2023-03-04T04:16:42;101237.47;;;7.50;86.47
18504;BME280;9381;54.244;10.074;2023-03-04T04:21:42;101234.13;;;7.48;86.26
18504;BME280;9381;54.244;10.074;2023-03-04T04:26:43;101232.84;;;7.44;86.59
18504;BME280;9381;54.244;10.074;2023-03-04T04:31:43;101238.47;;;7.35;86.79
18504;BME280;9381;54.244;10.074;2023-03-04T04:36:43;101220.91;;;7.24;86.57
18504;BME280;9381;54.244;10.074;2023-03-04T04:41:44;101235.69;;;7.28;84.10
18504;BME280;9381;54.244;10.074;2023-03-04T04:46:45;101235.69;;;7.28;83.55
18504;BME280;9381;54.244;10.074;2023-03-04T04:51:45;101225.25;;;7.11;83.54
18504;BME280;9381;54.244;10.074;2023-03-04T04:56:46;101235.44;;;7.01;83.84
18504;BME280;9381;54.244;10.074;2023-03-04T05:01:47;101229.78;;;6.96;84.18
18504;BME280;9381;54.244;10.074;2023-03-04T05:06:47;101240.59;;;6.88;84.31
18504;BME280;9381;54.244;10.074;2023-03-04T05:11:47;101229.31;;;6.92;84.60
18504;BME280;9381;54.244;10.074;2023-03-04T05:16:48;101239.41;;;6.90;85.68
18504;BME280;9381;54.244;10.074;2023-03-04T05:21:48;101236.66;;;6.98;84.93
18504;BME280;9381;54.244;10.074;2023-03-04T05:26:49;101241.34;;;6.96;85.61
18504;BME280;9381;54.244;10.074;2023-03-04T05:31:49;101247.75;;;6.95;85.41
18504;BME280;9381;54.244;10.074;2023-03-04T05:36:49;101244.31;;;6.87;84.23
18504;BME280;9381;54.244;10.074;2023-03-04T05:41:49;101242.09;;;6.90;85.10
18504;BME280;9381;54.244;10.074;2023-03-04T05:46:50;101243.22;;;6.96;84.26
18504;BME280;9381;54.244;10.074;2023-03-04T05:51:50;101248.50;;;6.89;85.18
18504;BME280;9381;54.244;10.074;2023-03-04T05:56:50;101244.72;;;6.98;84.51
18504;BME280;9381;54.244;10.074;2023-03-04T06:01:51;101243.13;;;6.89;84.38
18504;BME280;9381;54.244;10.074;2023-03-04T06:06:51;101250.88;;;6.84;86.20
18504;BME280;9381;54.244;10.074;2023-03-04T06:11:51;101248.28;;;6.91;85.07
18504;BME280;9381;54.244;10.074;2023-03-04T06:16:52;101247.16;;;6.85;84.80
18504;BME280;9381;54.244;10.074;2023-03-04T06:21:52;101247.81;;;6.87;84.16
18504;BME280;9381;54.244;10.074;2023-03-04T06:26:53;101257.22;;;6.91;84.08
18504;BME280;9381;54.244;10.074;2023-03-04T06:31:53;101246.34;;;6.85;84.35
18504;BME280;9381;54.244;10.074;2023-03-04T06:36:53;101254.31;;;6.70;84.72
18504;BME280;9381;54.244;10.074;2023-03-04T06:41:54;101269.22;;;6.81;83.37
18504;BME280;9381;54.244;10.074;2023-03-04T06:46:54;101272.75;;;6.81;83.41
18504;BME280;9381;54.244;10.074;2023-03-04T06:51:55;101287.97;;;6.89;83.84
18504;BME280;9381;54.244;10.074;2023-03-04T06:56:55;101285.94;;;6.91;83.30
18504;BME280;9381;54.244;10.074;2023-03-04T07:01:55;101293.91;;;6.84;82.35
18504;BME280;9381;54.244;10.074;2023-03-04T07:06:56;101285.88;;;6.76;82.13
18504;BME280;9381;54.244;10.074;2023-03-04T07:11:56;101289.06;;;6.80;82.77
18504;BME280;9381;54.244;10.074;2023-03-04T07:16:57;101301.06;;;6.92;82.02
18504;BME280;9381;54.244;10.074;2023-03-04T07:21:57;101300.25;;;6.91;82.69
18504;BME280;9381;54.244;10.074;2023-03-04T07:26:58;101288.53;;;6.84;82.14
18504;BME280;9381;54.244;10.074;2023-03-04T07:31:58;101300.28;;;6.83;80.16
18504;BME280;9381;54.244;10.074;2023-03-04T07:36:58;101313.19;;;6.88;80.94
18504;BME280;9381;54.244;10.074;2023-03-04T07:41:59;101309.44;;;6.74;80.03
18504;BME280;9381;54.244;10.074;2023-03-04T07:46:59;101320.78;;;6.84;79.43
18504;BME280;9381;54.244;10.074;2023-03-04T07:52:03;101324.00;;;6.80;78.53
18504;BME280;9381;54.244;10.074;2023-03-04T07:57:04;101330.56;;;6.77;77.40
18504;BME280;9381;54.244;10.074;2023-03-04T08:02:04;101322.94;;;6.89;78.23
18504;BME280;9381;54.244;10.074;2023-03-04T08:07:05;101324.59;;;7.12;77.72
18504;BME280;9381;54.244;10.074;2023-03-04T08:12:05;101328.97;;;7.13;78.23
18504;BME280;9381;54.244;10.074;2023-03-04T08:17:05;101333.69;;;7.11;77.50
18504;BME280;9381;54.244;10.074;2023-03-04T08:22:06;101328.69;;;7.08;78.32
18504;BME280;9381;54.244;10.074;2023-03-04T08:27:06;101320.28;;;7.26;78.35
18504;BME280;9381;54.244;10.074;2023-03-04T08:32:06;101315.31;;;7.37;77.16
18504;BME280;9381;54.244;10.074;2023-03-04T08:37:06;101326.38;;;7.42;77.45
18504;BME280;9381;54.244;10.074;2023-03-04T08:42:07;101317.28;;;7.43;76.50
18504;BME280;9381;54.244;10.074;2023-03-04T08:47:07;101314.69;;;7.35;76.99
18504;BME280;9381;54.244;10.074;2023-03-04T08:52:09;101320.25;;;7.48;77.13
18504;BME280;9381;54.244;10.074;2023-03-04T08:57:09;101326.81;;;7.31;74.88
18504;BME280;9381;54.244;10.074;2023-03-04T09:02:09;101345.16;;;7.05;74.42
18504;BME280;9381;54.244;10.074;2023-03-04T09:07:10;101337.88;;;7.14;74.38
18504;BME280;9381;54.244;10.074;2023-03-04T09:12:10;101327.28;;;7.35;74.43
18504;BME280;9381;54.244;10.074;2023-03-04T09:17:11;101340.19;;;7.39;72.78
18504;BME280;9381;54.244;10.074;2023-03-04T09:22:11;101328.72;;;7.45;73.54
18504;BME280;9381;54.244;10.074;2023-03-04T09:27:11;101318.84;;;7.38;74.15
18504;BME280;9381;54.244;10.074;2023-03-04T09:32:11;101333.41;;;7.43;73.69
18504;BME280;9381;54.244;10.074;2023-03-04T09:37:12;101325.50;;;7.64;73.34
18504;BME280;9381;54.244;10.074;2023-03-04T09:42:21;101341.41;;;7.51;72.71
18504;BME280;9381;54.244;10.074;2023-03-04T09:47:24;101326.78;;;7.68;72.77
18504;BME280;9381;54.244;10.074;2023-03-04T09:57:52;101328.13;;;7.72;72.79
18504;BME280;9381;54.244;10.074;2023-03-04T10:08:23;101321.78;;;7.65;73.39
18504;BME280;9381;54.244;10.074;2023-03-04T10:13:42;101327.16;;;7.65;73.70
18504;BME280;9381;54.244;10.074;2023-03-04T10:18:49;101330.13;;;7.70;72.35
18504;BME280;9381;54.244;10.074;2023-03-04T10:23:51;101323.72;;;7.71;72.72
18504;BME280;9381;54.244;10.074;2023-03-04T10:28:53;101332.47;;;7.73;72.75
18504;BME280;9381;54.244;10.074;2023-03-04T10:33:53;101324.75;;;7.70;73.03
18504;BME280;9381;54.244;10.074;2023-03-04T10:39:25;101331.09;;;7.92;72.63
18504;BME280;9381;54.244;10.074;2023-03-04T10:44:27;101338.69;;;7.88;72.26
18504;BME280;9381;54.244;10.074;2023-03-04T10:49:29;101337.88;;;7.88;71.99
18504;BME280;9381;54.244;10.074;2023-03-04T10:54:48;101325.16;;;7.96;71.52
18504;BME280;9381;54.244;10.074;2023-03-04T11:05:25;101335.91;;;7.96;71.14
18504;BME280;9381;54.244;10.074;2023-03-04T11:10:39;101345.50;;;7.99;70.87
18504;BME280;9381;54.244;10.074;2023-03-04T11:20:58;101343.34;;;7.94;72.33
18504;BME280;9381;54.244;10.074;2023-03-04T11:26:15;101344.28;;;8.01;72.89
18504;BME280;9381;54.244;10.074;2023-03-04T11:31:22;101346.63;;;8.04;72.54
18504;BME280;9381;54.244;10.074;2023-03-04T11:36:34;101335.94;;;8.25;73.04
18504;BME280;9381;54.244;10.074;2023-03-04T11:41:57;101339.56;;;8.47;72.25
18504;BME280;9381;54.244;10.074;2023-03-04T11:57:49;101330.91;;;8.51;73.26
18504;BME280;9381;54.244;10.074;2023-03-04T12:08:38;101328.59;;;8.48;71.45
18504;BME280;9381;54.244;10.074;2023-03-04T12:14:04;101318.97;;;8.60;72.91
18504;BME280;9381;54.244;10.074;2023-03-04T12:25:02;101326.44;;;8.58;73.01
18504;BME280;9381;54.244;10.074;2023-03-04T12:30:33;101307.16;;;8.61;72.88
18504;BME280;9381;54.244;10.074;2023-03-04T12:36:09;101306.38;;;8.46;71.66
18504;BME280;9381;54.244;10.074;2023-03-04T12:47:08;101299.44;;;9.35;70.65
18504;BME280;9381;54.244;10.074;2023-03-04T12:57:34;101275.34;;;11.09;64.12
18504;BME280;9381;54.244;10.074;2023-03-04T13:13:03;101271.16;;;9.86;63.88
18504;BME280;9381;54.244;10.074;2023-03-04T13:23:28;101279.47;;;8.88;66.16
18504;BME280;9381;54.244;10.074;2023-03-04T13:28:32;101278.81;;;8.65;67.58
18504;BME280;9381;54.244;10.074;2023-03-04T13:38:36;101277.88;;;8.37;68.79
18504;BME280;9381;54.244;10.074;2023-03-04T13:48:38;101262.31;;;9.44;66.78
18504;BME280;9381;54.244;10.074;2023-03-04T13:53:44;101258.75;;;9.71;66.49
18504;BME280;9381;54.244;10.074;2023-03-04T14:04:35;101262.16;;;9.24;64.53
18504;BME280;9381;54.244;10.074;2023-03-04T14:09:35;101266.78;;;9.30;65.34
18504;BME280;9381;54.244;10.074;2023-03-04T14:14:44;101261.59;;;9.29;65.21
18504;BME280;9381;54.244;10.074;2023-03-04T14:19:47;101258.00;;;9.22;65.13
18504;BME280;9381;54.244;10.074;2023-03-04T14:25:14;101266.72;;;9.24;66.74
18504;BME280;9381;54.244;10.074;2023-03-04T14:30:24;101263.00;;;9.25;67.93
18504;BME280;9381;54.244;10.074;2023-03-04T14:35:29;101263.28;;;9.36;67.21
18504;BME280;9381;54.244;10.074;2023-03-04T14:40:52;101254.59;;;9.41;66.54
18504;BME280;9381;54.244;10.074;2023-03-04T14:45:54;101245.16;;;9.30;65.91
18504;BME280;9381;54.244;10.074;2023-03-04T14:50:58;101245.25;;;9.16;66.30
18504;BME280;9381;54.244;10.074;2023-03-04T14:56:08;101250.81;;;8.87;66.33
18504;BME280;9381;54.244;10.074;2023-03-04T15:01:31;101245.19;;;8.82;66.23
18504;BME280;9381;54.244;10.074;2023-03-04T15:06:35;101245.25;;;8.68;66.87
18504;BME280;9381;54.244;10.074;2023-03-04T15:11:48;101235.56;;;8.38;68.35
18504;BME280;9381;54.244;10.074;2023-03-04T15:16:54;101244.25;;;8.19;68.03
18504;BME280;9381;54.244;10.074;2023-03-04T15:22:04;101241.28;;;8.28;68.38
18504;BME280;9381;54.244;10.074;2023-03-04T15:27:09;101240.72;;;8.04;68.90
18504;BME280;9381;54.244;10.074;2023-03-04T15:32:10;101237.00;;;8.19;68.64
18504;BME280;9381;54.244;10.074;2023-03-04T15:37:18;101235.22;;;7.97;69.17
18504;BME280;9381;54.244;10.074;2023-03-04T15:42:19;101234.22;;;8.13;69.03
18504;BME280;9381;54.244;10.074;2023-03-04T15:47:20;101229.03;;;7.82;70.22
18504;BME280;9381;54.244;10.074;2023-03-04T15:52:21;101235.53;;;7.73;70.34
18504;BME280;9381;54.244;10.074;2023-03-04T15:57:26;101226.44;;;7.60;69.19
18504;BME280;9381;54.244;10.074;2023-03-04T16:02:26;101220.22;;;7.74;69.79
18504;BME280;9381;54.244;10.074;2023-03-04T16:07:28;101208.88;;;7.78;69.08
18504;BME280;9381;54.244;10.074;2023-03-04T16:12:29;101211.66;;;7.70;69.28
18504;BME280;9381;54.244;10.074;2023-03-04T16:17:31;101208.34;;;7.68;70.30
18504;BME280;9381;54.244;10.074;2023-03-04T16:22:31;101212.34;;;7.58;71.19
18504;BME280;9381;54.244;10.074;2023-03-04T16:27:32;101205.09;;;7.58;70.86
18504;BME280;9381;54.244;10.074;2023-03-04T16:32:32;101205.66;;;7.54;70.36
18504;BME280;9381;54.244;10.074;2023-03-04T16:37:33;101203.50;;;7.49;70.93
18504;BME280;9381;54.244;10.074;2023-03-04T16:42:33;101209.28;;;7.46;70.56
18504;BME280;9381;54.244;10.074;2023-03-04T16:47:34;101207.59;;;7.45;70.75
18504;BME280;9381;54.244;10.074;2023-03-04T16:52:35;101200.91;;;7.41;69.21
18504;BME280;9381;54.244;10.074;2023-03-04T16:57:35;101194.56;;;7.34;69.67
18504;BME280;9381;54.244;10.074;2023-03-04T17:02:36;101197.56;;;7.25;70.19
18504;BME280;9381;54.244;10.074;2023-03-04T17:07:37;101204.31;;;7.21;70.96
18504;BME280;9381;54.244;10.074;2023-03-04T17:12:37;101197.00;;;7.29;72.11
18504;BME280;9381;54.244;10.074;2023-03-04T17:17:39;101200.81;;;7.35;71.99
18504;BME280;9381;54.244;10.074;2023-03-04T17:22:40;101205.09;;;7.44;71.81
18504;BME280;9381;54.244;10.074;2023-03-04T17:27:41;101210.56;;;7.36;71.39
18504;BME280;9381;54.244;10.074;2023-03-04T17:32:42;101214.81;;;7.30;69.89
18504;BME280;9381;54.244;10.074;2023-03-04T17:37:42;101220.34;;;7.14;69.98
18504;BME280;9381;54.244;10.074;2023-03-04T17:42:43;101222.72;;;6.95;70.80
18504;BME280;9381;54.244;10.074;2023-03-04T17:47:43;101222.53;;;6.96;70.67
18504;BME280;9381;54.244;10.074;2023-03-04T17:52:43;101217.69;;;6.92;71.32
18504;BME280;9381;54.244;10.074;2023-03-04T17:57:44;101214.91;;;6.85;70.87
18504;BME280;9381;54.244;10.074;2023-03-04T18:02:45;101223.03;;;6.77;71.13
18504;BME280;9381;54.244;10.074;2023-03-04T18:07:46;101229.16;;;6.71;70.49
18504;BME280;9381;54.244;10.074;2023-03-04T18:12:46;101211.09;;;6.57;70.63
18504;BME280;9381;54.244;10.074;2023-03-04T18:17:47;101218.56;;;6.47;70.90
18504;BME280;9381;54.244;10.074;2023-03-04T18:22:47;101227.00;;;6.44;71.96
18504;BME280;9381;54.244;10.074;2023-03-04T18:27:48;101223.50;;;6.36;71.54
18504;BME280;9381;54.244;10.074;2023-03-04T18:32:48;101225.03;;;6.30;72.18
18504;BME280;9381;54.244;10.074;2023-03-04T18:37:48;101218.06;;;6.21;70.81
18504;BME280;9381;54.244;10.074;2023-03-04T18:42:49;101220.72;;;6.21;71.36
18504;BME280;9381;54.244;10.074;2023-03-04T18:47:50;101220.47;;;6.08;71.74
18504;BME280;9381;54.244;10.074;2023-03-04T18:52:52;101220.19;;;5.95;70.97
18504;BME280;9381;54.244;10.074;2023-03-04T18:57:55;101215.22;;;5.76;70.07
18504;BME280;9381;54.244;10.074;2023-03-04T19:03:07;101221.31;;;5.70;70.36
18504;BME280;9381;54.244;10.074;2023-03-04T19:08:10;101206.25;;;5.62;70.25
18504;BME280;9381;54.244;10.074;2023-03-04T19:13:10;101220.16;;;5.57;70.55
18504;BME280;9381;54.244;10.074;2023-03-04T19:18:11;101225.03;;;5.54;71.00
18504;BME280;9381;54.244;10.074;2023-03-04T19:23:11;101216.31;;;5.52;70.30
18504;BME280;9381;54.244;10.074;2023-03-04T19:28:12;101218.69;;;5.47;70.73
18504;BME280;9381;54.244;10.074;2023-03-04T19:33:12;101228.41;;;5.40;69.75
18504;BME280;9381;54.244;10.074;2023-03-04T19:38:13;101225.38;;;5.43;69.62
18504;BME280;9381;54.244;10.074;2023-03-04T19:43:13;101231.13;;;5.32;69.88
18504;BME280;9381;54.244;10.074;2023-03-04T19:48:14;101228.44;;;5.32;70.72
18504;BME280;9381;54.244;10.074;2023-03-04T19:53:15;101235.81;;;5.30;70.48
18504;BME280;9381;54.244;10.074;2023-03-04T19:58:18;101226.13;;;5.21;71.22
18504;BME280;9381;54.244;10.074;2023-03-04T20:03:19;101227.28;;;5.26;71.07
18504;BME280;9381;54.244;10.074;2023-03-04T20:08:19;101230.81;;;5.11;70.52
18504;BME280;9381;54.244;10.074;2023-03-04T20:13:19;101219.09;;;5.04;70.18
18504;BME280;9381;54.244;10.074;2023-03-04T20:18:20;101216.09;;;4.91;70.00
18504;BME280;9381;54.244;10.074;2023-03-04T20:23:21;101210.75;;;4.83;69.77
18504;BME280;9381;54.244;10.074;2023-03-04T20:28:22;101214.06;;;4.77;70.12
18504;BME280;9381;54.244;10.074;2023-03-04T20:33:23;101214.75;;;4.79;71.05
18504;BME280;9381;54.244;10.074;2023-03-04T20:38:24;101219.78;;;4.74;70.57
18504;BME280;9381;54.244;10.074;2023-03-04T20:43:24;101215.59;;;4.79;71.76
18504;BME280;9381;54.244;10.074;2023-03-04T20:48:27;101200.69;;;4.77;71.37
18504;BME280;9381;54.244;10.074;2023-03-04T20:53:28;101206.38;;;4.82;71.23
18504;BME280;9381;54.244;10.074;2023-03-04T20:58:28;101207.41;;;4.73;71.42
18504;BME280;9381;54.244;10.074;2023-03-04T21:03:29;101208.06;;;4.83;70.53
18504;BME280;9381;54.244;10.074;2023-03-04T21:08:29;101200.38;;;4.72;69.74
18504;BME280;9381;54.244;10.074;2023-03-04T21:13:30;101192.63;;;4.77;70.22
18504;BME280;9381;54.244;10.074;2023-03-04T21:18:31;101190.63;;;4.47;69.73
18504;BME280;9381;54.244;10.074;2023-03-04T21:23:32;101189.44;;;4.65;69.98
18504;BME280;9381;54.244;10.074;2023-03-04T21:28:32;101177.41;;;4.61;71.04
18504;BME280;9381;54.244;10.074;2023-03-04T21:33:34;101170.19;;;4.78;71.15
18504;BME280;9381;54.244;10.074;2023-03-04T21:38:35;101172.38;;;4.74;71.12
18504;BME280;9381;54.244;10.074;2023-03-04T21:43:36;101152.94;;;4.72;71.93
18504;BME280;9381;54.244;10.074;2023-03-04T21:48:36;101152.13;;;4.72;73.05
18504;BME280;9381;54.244;10.074;2023-03-04T21:53:37;101152.28;;;4.78;74.29
18504;BME280;9381;54.244;10.074;2023-03-04T21:58:38;101135.38;;;4.78;75.51
18504;BME280;9381;54.244;10.074;2023-03-04T22:03:41;101136.19;;;4.94;76.31
18504;BME280;9381;54.244;10.074;2023-03-04T22:08:41;101135.03;;;4.81;77.64
18504;BME280;9381;54.244;10.074;2023-03-04T22:13:42;101126.84;;;4.66;78.68
18504;BME280;9381;54.244;10.074;2023-03-04T22:18:42;101126.00;;;4.74;78.52
18504;BME280;9381;54.244;10.074;2023-03-04T22:23:43;101118.91;;;4.97;79.23
18504;BME280;9381;54.244;10.074;2023-03-04T22:28:44;101127.63;;;4.99;79.21
18504;BME280;9381;54.244;10.074;2023-03-04T22:33:45;101120.25;;;5.01;79.76
18504;BME280;9381;54.244;10.074;2023-03-04T22:38:46;101118.25;;;4.95;79.65
18504;BME280;9381;54.244;10.074;2023-03-04T22:43:47;101110.06;;;4.88;79.86
18504;BME280;9381;54.244;10.074;2023-03-04T22:48:50;101102.56;;;4.68;79.80
18504;BME280;9381;54.244;10.074;2023-03-04T22:53:51;101094.16;;;4.79;79.90
18504;BME280;9381;54.244;10.074;2023-03-04T22:58:52;101096.16;;;4.85;80.27
18504;BME280;9381;54.244;10.074;2023-03-04T23:03:52;101100.88;;;4.83;80.19
18504;BME280;9381;54.244;10.074;2023-03-04T23:08:53;101081.38;;;4.97;79.93
18504;BME280;9381;54.244;10.074;2023-03-04T23:13:54;101077.03;;;4.96;79.65
18504;BME280;9381;54.244;10.074;2023-03-04T23:18:54;101075.72;;;4.84;80.04
18504;BME280;9381;54.244;10.074;2023-03-04T23:23:55;101076.72;;;4.91;80.49
18504;BME280;9381;54.244;10.074;2023-03-04T23:28:55;101078.06;;;4.87;80.03
18504;BME280;9381;54.244;10.074;2023-03-04T23:33:56;101077.63;;;4.75;80.55
18504;BME280;9381;54.244;10.074;2023-03-04T23:38:57;101076.13;;;4.65;80.56
18504;BME280;9381;54.244;10.074;2023-03-04T23:43:58;101065.41;;;4.49;80.94
18504;BME280;9381;54.244;10.074;2023-03-04T23:48:59;101045.63;;;4.66;80.61
18504;BME280;9381;54.244;10.074;2023-03-04T23:53:59;101050.47;;;4.78;79.58
18504;BME280;9381;54.244;10.074;2023-03-04T23:59:00;101052.63;;;4.83;78.31
